sensor_id;sensor_type;location;lat;lon;timestamp;temperature;humidity
79762;DHT22;69249;42.122;24.734;2023-04-24T00:00:35;14.00;53.80
79762;DHT22;69249;42.122;24.734;2023-04-24T00:03:01;14.00;53.40
79762;DHT22;69249;42.122;24.734;2023-04-24T00:05:28;14.00;53.50
79762;DHT22;69249;42.122;24.734;2023-04-24T00:07:54;13.90;54.10
79762;DHT22;69249;42.122;24.734;2023-04-24T00:10:20;13.80;54.20
79762;DHT22;69249;42.122;24.734;2023-04-24T00:12:46;13.70;54.20
79762;DHT22;69249;42.122;24.734;2023-04-24T00:15:12;13.80;54.20
79762;DHT22;69249;42.122;24.734;2023-04-24T00:17:37;13.80;54.30
79762;DHT22;69249;42.122;24.734;2023-04-24T00:20:04;13.80;54.60
79762;DHT22;69249;42.122;24.734;2023-04-24T00:22:32;13.90;54.30
79762;DHT22;69249;42.122;24.734;2023-04-24T00:24:58;13.80;53.90
79762;DHT22;69249;42.122;24.734;2023-04-24T00:27:23;13.70;54.40
79762;DHT22;69249;42.122;24.734;2023-04-24T00:29:49;13.80;54.30
79762;DHT22;69249;42.122;24.734;2023-04-24T00:32:15;13.60;54.90
79762;DHT22;69249;42.122;24.734;2023-04-24T00:34:41;13.70;54.70
79762;DHT22;69249;42.122;24.734;2023-04-24T00:37:07;13.70;54.70
79762;DHT22;69249;42.122;24.734;2023-04-24T00:39:33;13.70;54.80
79762;DHT22;69249;42.122;24.734;2023-04-24T00:41:58;13.80;54.90
79762;DHT22;69249;42.122;24.734;2023-04-24T00:44:25;13.60;54.90
79762;DHT22;69249;42.122;24.734;2023-04-24T00:46:50;13.60;55.60
79762;DHT22;69249;42.122;24.734;2023-04-24T00:49:20;13.70;55.10
79762;DHT22;69249;42.122;24.734;2023-04-24T00:51:46;13.90;54.30
79762;DHT22;69249;42.122;24.734;2023-04-24T00:54:15;13.80;54.60
79762;DHT22;69249;42.122;24.734;2023-04-24T00:56:42;13.60;55.20
79762;DHT22;69249;42.122;24.734;2023-04-24T00:59:09;13.30;56.10
79762;DHT22;69249;42.122;24.734;2023-04-24T01:01:35;13.10;56.30
79762;DHT22;69249;42.122;24.734;2023-04-24T01:04:01;12.80;57.60
79762;DHT22;69249;42.122;24.734;2023-04-24T01:06:28;13.10;56.80
79762;DHT22;69249;42.122;24.734;2023-04-24T01:08:57;13.10;56.50
79762;DHT22;69249;42.122;24.734;2023-04-24T01:11:24;12.80;57.00
79762;DHT22;69249;42.122;24.734;2023-04-24T01:13:51;12.50;58.30
79762;DHT22;69249;42.122;24.734;2023-04-24T01:16:16;12.50;58.90
79762;DHT22;69249;42.122;24.734;2023-04-24T01:18:43;12.40;59.30
79762;DHT22;69249;42.122;24.734;2023-04-24T01:21:13;12.60;58.60
79762;DHT22;69249;42.122;24.734;2023-04-24T01:23:39;12.50;58.90
79762;DHT22;69249;42.122;24.734;2023-04-24T01:26:05;12.30;59.60
79762;DHT22;69249;42.122;24.734;2023-04-24T01:28:31;12.20;60.20
79762;DHT22;69249;42.122;24.734;2023-04-24T01:30:57;12.10;60.10
79762;DHT22;69249;42.122;24.734;2023-04-24T01:33:22;12.00;60.60
79762;DHT22;69249;42.122;24.734;2023-04-24T01:35:49;11.80;61.10
79762;DHT22;69249;42.122;24.734;2023-04-24T01:38:14;12.00;60.70
79762;DHT22;69249;42.122;24.734;2023-04-24T01:40:40;11.90;61.10
79762;DHT22;69249;42.122;24.734;2023-04-24T01:43:06;11.70;61.70
79762;DHT22;69249;42.122;24.734;2023-04-24T01:45:32;11.70;62.00
79762;DHT22;69249;42.122;24.734;2023-04-24T01:47:58;11.50;62.70
79762;DHT22;69249;42.122;24.734;2023-04-24T01:50:25;11.30;63.30
79762;DHT22;69249;42.122;24.734;2023-04-24T01:52:51;11.20;63.60
79762;DHT22;69249;42.122;24.734;2023-04-24T01:55:17;11.20;63.80
79762;DHT22;69249;42.122;24.734;2023-04-24T01:57:43;11.20;63.80
79762;DHT22;69249;42.122;24.734;2023-04-24T02:00:09;11.20;63.80
79762;DHT22;69249;42.122;24.734;2023-04-24T02:02:37;11.40;62.80
79762;DHT22;69249;42.122;24.734;2023-04-24T02:05:03;11.60;62.60
79762;DHT22;69249;42.122;24.734;2023-04-24T02:07:31;11.70;61.30
79762;DHT22;69249;42.122;24.734;2023-04-24T02:09:57;11.70;61.70
79762;DHT22;69249;42.122;24.734;2023-04-24T02:12:22;11.50;62.10
79762;DHT22;69249;42.122;24.734;2023-04-24T02:14:48;11.30;63.10
79762;DHT22;69249;42.122;24.734;2023-04-24T02:17:14;11.20;63.60
79762;DHT22;69249;42.122;24.734;2023-04-24T02:19:40;11.20;64.10
79762;DHT22;69249;42.122;24.734;2023-04-24T02:22:06;11.10;64.30
79762;DHT22;69249;42.122;24.734;2023-04-24T02:24:32;11.10;64.50
79762;DHT22;69249;42.122;24.734;2023-04-24T02:26:57;11.10;64.70
79762;DHT22;69249;42.122;24.734;2023-04-24T02:29:23;11.10;64.90
79762;DHT22;69249;42.122;24.734;2023-04-24T02:31:49;11.20;64.50
79762;DHT22;69249;42.122;24.734;2023-04-24T02:34:15;11.30;64.10
79762;DHT22;69249;42.122;24.734;2023-04-24T02:36:42;11.30;64.30
79762;DHT22;69249;42.122;24.734;2023-04-24T02:39:07;11.30;64.10
79762;DHT22;69249;42.122;24.734;2023-04-24T02:41:33;11.30;64.00
79762;DHT22;69249;42.122;24.734;2023-04-24T02:43:59;11.40;64.00
79762;DHT22;69249;42.122;24.734;2023-04-24T02:46:25;11.40;63.70
79762;DHT22;69249;42.122;24.734;2023-04-24T02:48:51;11.60;64.50
79762;DHT22;69249;42.122;24.734;2023-04-24T02:51:17;11.60;63.20
79762;DHT22;69249;42.122;24.734;2023-04-24T02:53:42;11.70;62.90
79762;DHT22;69249;42.122;24.734;2023-04-24T02:56:08;11.70;63.00
79762;DHT22;69249;42.122;24.734;2023-04-24T02:58:34;11.60;63.10
79762;DHT22;69249;42.122;24.734;2023-04-24T03:01:01;11.60;63.10
79762;DHT22;69249;42.122;24.734;2023-04-24T03:03:26;11.70;63.10
79762;DHT22;69249;42.122;24.734;2023-04-24T03:05:52;11.90;62.10
79762;DHT22;69249;42.122;24.734;2023-04-24T03:08:18;12.00;61.90
79762;DHT22;69249;42.122;24.734;2023-04-24T03:10:43;12.00;61.70
79762;DHT22;69249;42.122;24.734;2023-04-24T03:13:09;12.00;61.30
79762;DHT22;69249;42.122;24.734;2023-04-24T03:15:35;11.90;61.70
79762;DHT22;69249;42.122;24.734;2023-04-24T03:18:00;11.80;61.90
79762;DHT22;69249;42.122;24.734;2023-04-24T03:20:28;11.70;62.30
79762;DHT22;69249;42.122;24.734;2023-04-24T03:22:53;11.70;62.30
79762;DHT22;69249;42.122;24.734;2023-04-24T03:25:19;11.60;62.70
79762;DHT22;69249;42.122;24.734;2023-04-24T03:27:45;11.50;63.10
79762;DHT22;69249;42.122;24.734;2023-04-24T03:30:11;11.50;63.00
79762;DHT22;69249;42.122;24.734;2023-04-24T03:32:38;11.60;62.90
79762;DHT22;69249;42.122;24.734;2023-04-24T03:35:06;11.60;62.80
79762;DHT22;69249;42.122;24.734;2023-04-24T03:37:32;11.80;63.30
79762;DHT22;69249;42.122;24.734;2023-04-24T03:39:58;12.00;61.30
79762;DHT22;69249;42.122;24.734;2023-04-24T03:42:23;12.00;60.80
79762;DHT22;69249;42.122;24.734;2023-04-24T03:44:49;12.10;60.50
79762;DHT22;69249;42.122;24.734;2023-04-24T03:47:16;12.20;59.80
79762;DHT22;69249;42.122;24.734;2023-04-24T03:49:42;12.30;59.90
79762;DHT22;69249;42.122;24.734;2023-04-24T03:52:08;12.10;60.20
79762;DHT22;69249;42.122;24.734;2023-04-24T03:54:33;11.90;61.50
79762;DHT22;69249;42.122;24.734;2023-04-24T03:56:59;11.80;61.80
79762;DHT22;69249;42.122;24.734;2023-04-24T03:59:25;11.90;62.00
79762;DHT22;69249;42.122;24.734;2023-04-24T04:01:51;11.80;62.20
79762;DHT22;69249;42.122;24.734;2023-04-24T04:04:16;12.00;62.20
79762;DHT22;69249;42.122;24.734;2023-04-24T04:06:43;12.20;60.20
79762;DHT22;69249;42.122;24.734;2023-04-24T04:09:09;12.30;59.50
79762;DHT22;69249;42.122;24.734;2023-04-24T04:11:35;12.40;59.20
79762;DHT22;69249;42.122;24.734;2023-04-24T04:14:01;12.30;59.70
79762;DHT22;69249;42.122;24.734;2023-04-24T04:16:27;12.10;60.10
79762;DHT22;69249;42.122;24.734;2023-04-24T04:18:53;12.00;60.50
79762;DHT22;69249;42.122;24.734;2023-04-24T04:21:18;12.00;60.50
79762;DHT22;69249;42.122;24.734;2023-04-24T04:23:44;12.00;60.70
79762;DHT22;69249;42.122;24.734;2023-04-24T04:26:11;12.00;60.50
79762;DHT22;69249;42.122;24.734;2023-04-24T04:31:32;12.20;60.00
79762;DHT22;69249;42.122;24.734;2023-04-24T04:33:58;12.30;60.00
79762;DHT22;69249;42.122;24.734;2023-04-24T04:36:27;12.40;60.00
79762;DHT22;69249;42.122;24.734;2023-04-24T04:38:55;12.60;59.70
79762;DHT22;69249;42.122;24.734;2023-04-24T04:41:25;12.70;59.40
79762;DHT22;69249;42.122;24.734;2023-04-24T04:43:51;12.80;58.70
79762;DHT22;69249;42.122;24.734;2023-04-24T04:46:18;12.60;58.90
79762;DHT22;69249;42.122;24.734;2023-04-24T04:48:47;12.70;58.90
79762;DHT22;69249;42.122;24.734;2023-04-24T04:51:13;12.70;58.90
79762;DHT22;69249;42.122;24.734;2023-04-24T04:53:38;12.80;58.80
79762;DHT22;69249;42.122;24.734;2023-04-24T04:56:07;12.90;58.40
79762;DHT22;69249;42.122;24.734;2023-04-24T04:58:33;13.00;57.90
79762;DHT22;69249;42.122;24.734;2023-04-24T05:00:59;13.20;57.20
79762;DHT22;69249;42.122;24.734;2023-04-24T05:03:27;13.30;57.00
79762;DHT22;69249;42.122;24.734;2023-04-24T05:05:53;13.50;56.50
79762;DHT22;69249;42.122;24.734;2023-04-24T05:08:18;13.60;56.10
79762;DHT22;69249;42.122;24.734;2023-04-24T05:10:56;13.70;56.10
79762;DHT22;69249;42.122;24.734;2023-04-24T05:13:50;13.90;55.40
79762;DHT22;69249;42.122;24.734;2023-04-24T05:16:15;14.10;54.50
79762;DHT22;69249;42.122;24.734;2023-04-24T05:19:03;14.30;54.00
79762;DHT22;69249;42.122;24.734;2023-04-24T05:21:32;14.40;53.70
79762;DHT22;69249;42.122;24.734;2023-04-24T05:24:01;14.60;53.10
79762;DHT22;69249;42.122;24.734;2023-04-24T05:26:49;14.80;53.70
79762;DHT22;69249;42.122;24.734;2023-04-24T05:29:15;15.10;52.00
79762;DHT22;69249;42.122;24.734;2023-04-24T05:31:48;15.20;52.00
79762;DHT22;69249;42.122;24.734;2023-04-24T05:34:17;15.40;51.60
79762;DHT22;69249;42.122;24.734;2023-04-24T05:37:03;15.60;50.40
79762;DHT22;69249;42.122;24.734;2023-04-24T05:39:33;15.80;51.00
79762;DHT22;69249;42.122;24.734;2023-04-24T05:42:06;15.70;50.80
79762;DHT22;69249;42.122;24.734;2023-04-24T05:44:41;15.80;51.10
79762;DHT22;69249;42.122;24.734;2023-04-24T05:47:13;16.00;49.80
79762;DHT22;69249;42.122;24.734;2023-04-24T05:49:41;16.20;49.30
79762;DHT22;69249;42.122;24.734;2023-04-24T05:52:07;16.30;50.20
79762;DHT22;69249;42.122;24.734;2023-04-24T05:54:34;16.50;48.80
79762;DHT22;69249;42.122;24.734;2023-04-24T05:57:00;16.60;48.20
79762;DHT22;69249;42.122;24.734;2023-04-24T05:59:30;16.60;48.00
79762;DHT22;69249;42.122;24.734;2023-04-24T06:01:56;16.60;48.60
79762;DHT22;69249;42.122;24.734;2023-04-24T06:04:34;16.60;48.20
79762;DHT22;69249;42.122;24.734;2023-04-24T06:07:00;16.70;47.80
79762;DHT22;69249;42.122;24.734;2023-04-24T06:09:26;16.60;48.10
79762;DHT22;69249;42.122;24.734;2023-04-24T06:11:52;16.40;48.70
79762;DHT22;69249;42.122;24.734;2023-04-24T06:14:19;16.50;48.60
79762;DHT22;69249;42.122;24.734;2023-04-24T06:16:45;16.60;48.70
79762;DHT22;69249;42.122;24.734;2023-04-24T06:19:11;16.60;48.60
79762;DHT22;69249;42.122;24.734;2023-04-24T06:21:36;16.70;49.10
79762;DHT22;69249;42.122;24.734;2023-04-24T06:24:03;16.70;49.20
79762;DHT22;69249;42.122;24.734;2023-04-24T06:26:30;16.60;48.40
79762;DHT22;69249;42.122;24.734;2023-04-24T06:28:59;16.60;48.20
79762;DHT22;69249;42.122;24.734;2023-04-24T06:31:26;16.60;47.90
79762;DHT22;69249;42.122;24.734;2023-04-24T06:33:52;16.60;47.50
79762;DHT22;69249;42.122;24.734;2023-04-24T06:36:40;16.90;47.50
79762;DHT22;69249;42.122;24.734;2023-04-24T06:39:06;17.00;47.80
79762;DHT22;69249;42.122;24.734;2023-04-24T06:41:35;17.20;47.30
79762;DHT22;69249;42.122;24.734;2023-04-24T06:44:03;17.50;47.60
79762;DHT22;69249;42.122;24.734;2023-04-24T06:46:29;17.50;46.80
79762;DHT22;69249;42.122;24.734;2023-04-24T06:48:55;17.60;46.40
79762;DHT22;69249;42.122;24.734;2023-04-24T06:51:23;17.60;46.10
79762;DHT22;69249;42.122;24.734;2023-04-24T06:53:49;17.80;45.90
79762;DHT22;69249;42.122;24.734;2023-04-24T06:56:15;18.00;45.50
79762;DHT22;69249;42.122;24.734;2023-04-24T06:58:41;18.00;45.10
79762;DHT22;69249;42.122;24.734;2023-04-24T07:01:07;18.20;44.10
79762;DHT22;69249;42.122;24.734;2023-04-24T07:03:41;18.20;44.30
79762;DHT22;69249;42.122;24.734;2023-04-24T07:06:19;18.20;44.10
79762;DHT22;69249;42.122;24.734;2023-04-24T07:08:48;18.20;43.80
79762;DHT22;69249;42.122;24.734;2023-04-24T07:11:14;18.20;43.70
79762;DHT22;69249;42.122;24.734;2023-04-24T07:13:49;18.20;43.70
79762;DHT22;69249;42.122;24.734;2023-04-24T07:16:34;18.20;43.80
79762;DHT22;69249;42.122;24.734;2023-04-24T07:19:03;18.30;43.80
79762;DHT22;69249;42.122;24.734;2023-04-24T07:21:29;18.40;43.70
79762;DHT22;69249;42.122;24.734;2023-04-24T07:23:58;18.30;44.00
79762;DHT22;69249;42.122;24.734;2023-04-24T07:26:23;18.40;44.40
79762;DHT22;69249;42.122;24.734;2023-04-24T07:28:49;18.60;43.30
79762;DHT22;69249;42.122;24.734;2023-04-24T07:31:15;18.80;42.90
79762;DHT22;69249;42.122;24.734;2023-04-24T07:33:41;19.00;42.70
79762;DHT22;69249;42.122;24.734;2023-04-24T07:36:06;19.20;43.30
79762;DHT22;69249;42.122;24.734;2023-04-24T07:38:32;19.10;41.90
79762;DHT22;69249;42.122;24.734;2023-04-24T07:41:04;19.00;42.10
79762;DHT22;69249;42.122;24.734;2023-04-24T07:43:33;19.00;42.60
79762;DHT22;69249;42.122;24.734;2023-04-24T07:46:10;19.10;42.00
79762;DHT22;69249;42.122;24.734;2023-04-24T07:48:38;19.10;43.90
79762;DHT22;69249;42.122;24.734;2023-04-24T07:51:05;19.00;42.60
79762;DHT22;69249;42.122;24.734;2023-04-24T07:56:17;19.60;40.80
79762;DHT22;69249;42.122;24.734;2023-04-24T07:58:43;19.80;39.60
79762;DHT22;69249;42.122;24.734;2023-04-24T08:01:09;20.00;39.90
79762;DHT22;69249;42.122;24.734;2023-04-24T08:03:35;20.10;38.90
79762;DHT22;69249;42.122;24.734;2023-04-24T08:06:00;20.20;38.10
79762;DHT22;69249;42.122;24.734;2023-04-24T08:08:26;20.30;37.80
79762;DHT22;69249;42.122;24.734;2023-04-24T08:10:55;20.50;38.10
79762;DHT22;69249;42.122;24.734;2023-04-24T08:13:29;20.70;37.70
79762;DHT22;69249;42.122;24.734;2023-04-24T08:15:58;20.90;37.50
79762;DHT22;69249;42.122;24.734;2023-04-24T08:18:24;20.80;36.90
79762;DHT22;69249;42.122;24.734;2023-04-24T08:20:49;20.70;37.40
79762;DHT22;69249;42.122;24.734;2023-04-24T08:23:15;20.60;37.50
79762;DHT22;69249;42.122;24.734;2023-04-24T08:25:48;20.60;37.70
79762;DHT22;69249;42.122;24.734;2023-04-24T08:28:14;20.60;37.80
79762;DHT22;69249;42.122;24.734;2023-04-24T08:30:46;20.60;38.10
79762;DHT22;69249;42.122;24.734;2023-04-24T08:33:13;20.60;39.10
79762;DHT22;69249;42.122;24.734;2023-04-24T08:35:39;20.50;39.40
79762;DHT22;69249;42.122;24.734;2023-04-24T08:38:34;20.60;38.80
79762;DHT22;69249;42.122;24.734;2023-04-24T08:41:04;20.70;38.30
79762;DHT22;69249;42.122;24.734;2023-04-24T08:43:37;20.70;38.20
79762;DHT22;69249;42.122;24.734;2023-04-24T08:46:07;20.80;38.30
79762;DHT22;69249;42.122;24.734;2023-04-24T08:48:36;20.80;38.40
79762;DHT22;69249;42.122;24.734;2023-04-24T08:51:07;20.90;38.00
79762;DHT22;69249;42.122;24.734;2023-04-24T08:53:35;21.10;38.50
79762;DHT22;69249;42.122;24.734;2023-04-24T08:56:03;21.30;37.60
79762;DHT22;69249;42.122;24.734;2023-04-24T08:59:17;21.50;36.90
79762;DHT22;69249;42.122;24.734;2023-04-24T09:01:56;21.50;36.00
79762;DHT22;69249;42.122;24.734;2023-04-24T09:04:58;21.60;36.70
79762;DHT22;69249;42.122;24.734;2023-04-24T09:07:51;21.60;36.70
79762;DHT22;69249;42.122;24.734;2023-04-24T09:10:27;21.60;36.50
79762;DHT22;69249;42.122;24.734;2023-04-24T09:13:16;21.60;36.10
79762;DHT22;69249;42.122;24.734;2023-04-24T09:16:08;21.70;36.30
79762;DHT22;69249;42.122;24.734;2023-04-24T09:18:33;21.80;35.70
79762;DHT22;69249;42.122;24.734;2023-04-24T09:21:12;21.90;34.80
79762;DHT22;69249;42.122;24.734;2023-04-24T09:24:16;21.70;34.00
79762;DHT22;69249;42.122;24.734;2023-04-24T09:26:48;21.70;36.60
79762;DHT22;69249;42.122;24.734;2023-04-24T09:29:18;21.70;37.50
79762;DHT22;69249;42.122;24.734;2023-04-24T09:31:56;21.70;35.50
79762;DHT22;69249;42.122;24.734;2023-04-24T09:34:35;21.80;35.90
79762;DHT22;69249;42.122;24.734;2023-04-24T09:37:09;21.80;36.70
79762;DHT22;69249;42.122;24.734;2023-04-24T09:39:35;21.80;36.80
79762;DHT22;69249;42.122;24.734;2023-04-24T09:42:01;21.80;37.30
79762;DHT22;69249;42.122;24.734;2023-04-24T09:44:36;21.90;37.00
79762;DHT22;69249;42.122;24.734;2023-04-24T09:47:11;22.00;36.10
79762;DHT22;69249;42.122;24.734;2023-04-24T09:49:38;22.00;36.00
79762;DHT22;69249;42.122;24.734;2023-04-24T09:52:10;22.00;36.30
79762;DHT22;69249;42.122;24.734;2023-04-24T09:54:40;22.10;36.40
79762;DHT22;69249;42.122;24.734;2023-04-24T09:57:08;22.20;35.40
79762;DHT22;69249;42.122;24.734;2023-04-24T09:59:34;22.30;35.40
79762;DHT22;69249;42.122;24.734;2023-04-24T10:02:00;22.40;35.30
79762;DHT22;69249;42.122;24.734;2023-04-24T10:04:32;22.60;36.50
79762;DHT22;69249;42.122;24.734;2023-04-24T10:07:08;22.60;35.00
79762;DHT22;69249;42.122;24.734;2023-04-24T10:09:35;22.60;35.50
79762;DHT22;69249;42.122;24.734;2023-04-24T10:12:02;22.70;35.40
79762;DHT22;69249;42.122;24.734;2023-04-24T10:14:29;22.50;35.50
79762;DHT22;69249;42.122;24.734;2023-04-24T10:17:15;22.50;35.10
79762;DHT22;69249;42.122;24.734;2023-04-24T10:19:46;22.70;35.60
79762;DHT22;69249;42.122;24.734;2023-04-24T10:22:13;22.80;35.60
79762;DHT22;69249;42.122;24.734;2023-04-24T10:24:41;23.00;37.30
79762;DHT22;69249;42.122;24.734;2023-04-24T10:27:10;23.10;34.80
79762;DHT22;69249;42.122;24.734;2023-04-24T10:29:53;23.10;36.20
79762;DHT22;69249;42.122;24.734;2023-04-24T10:32:20;23.10;35.40
79762;DHT22;69249;42.122;24.734;2023-04-24T10:34:46;23.30;34.60
79762;DHT22;69249;42.122;24.734;2023-04-24T10:37:12;23.30;34.30
79762;DHT22;69249;42.122;24.734;2023-04-24T10:39:42;23.20;35.80
79762;DHT22;69249;42.122;24.734;2023-04-24T10:42:17;23.20;34.30
79762;DHT22;69249;42.122;24.734;2023-04-24T10:44:49;23.30;35.30
79762;DHT22;69249;42.122;24.734;2023-04-24T10:47:28;23.50;35.00
79762;DHT22;69249;42.122;24.734;2023-04-24T10:49:59;23.50;34.30
79762;DHT22;69249;42.122;24.734;2023-04-24T10:52:44;23.40;34.60
79762;DHT22;69249;42.122;24.734;2023-04-24T10:55:10;23.40;34.50
79762;DHT22;69249;42.122;24.734;2023-04-24T10:57:37;23.40;35.20
79762;DHT22;69249;42.122;24.734;2023-04-24T11:00:19;23.60;35.00
79762;DHT22;69249;42.122;24.734;2023-04-24T11:02:52;23.70;34.40
79762;DHT22;69249;42.122;24.734;2023-04-24T11:05:20;23.90;34.70
79762;DHT22;69249;42.122;24.734;2023-04-24T11:11:29;24.10;34.20
79762;DHT22;69249;42.122;24.734;2023-04-24T11:16:25;24.70;34.30
79762;DHT22;69249;42.122;24.734;2023-04-24T11:21:40;25.20;33.10
79762;DHT22;69249;42.122;24.734;2023-04-24T11:29:51;27.30;29.70
79762;DHT22;69249;42.122;24.734;2023-04-24T11:41:12;29.60;26.80
79762;DHT22;69249;42.122;24.734;2023-04-24T11:44:02;32.80;24.30
79762;DHT22;69249;42.122;24.734;2023-04-24T11:46:39;34.60;22.40
79762;DHT22;69249;42.122;24.734;2023-04-24T11:49:25;36.50;20.80
79762;DHT22;69249;42.122;24.734;2023-04-24T11:52:10;38.80;19.10
79762;DHT22;69249;42.122;24.734;2023-04-24T11:54:47;40.70;17.40
79762;DHT22;69249;42.122;24.734;2023-04-24T11:57:13;41.90;16.50
79762;DHT22;69249;42.122;24.734;2023-04-24T11:59:45;43.50;15.50
79762;DHT22;69249;42.122;24.734;2023-04-24T12:02:25;45.20;14.80
79762;DHT22;69249;42.122;24.734;2023-04-24T12:04:54;46.00;13.90
79762;DHT22;69249;42.122;24.734;2023-04-24T12:07:24;47.20;13.30
79762;DHT22;69249;42.122;24.734;2023-04-24T12:09:57;47.80;12.50
79762;DHT22;69249;42.122;24.734;2023-04-24T12:12:28;48.30;12.20
79762;DHT22;69249;42.122;24.734;2023-04-24T12:14:58;48.30;12.00
79762;DHT22;69249;42.122;24.734;2023-04-24T12:17:29;48.80;11.80
79762;DHT22;69249;42.122;24.734;2023-04-24T12:20:00;48.70;11.60
79762;DHT22;69249;42.122;24.734;2023-04-24T12:22:27;48.60;11.70
79762;DHT22;69249;42.122;24.734;2023-04-24T12:25:03;49.00;11.50
79762;DHT22;69249;42.122;24.734;2023-04-24T12:27:32;48.60;11.20
79762;DHT22;69249;42.122;24.734;2023-04-24T12:30:04;47.60;11.40
79762;DHT22;69249;42.122;24.734;2023-04-24T12:32:30;46.80;12.00
79762;DHT22;69249;42.122;24.734;2023-04-24T12:34:56;45.60;12.50
79762;DHT22;69249;42.122;24.734;2023-04-24T12:37:26;44.40;13.00
79762;DHT22;69249;42.122;24.734;2023-04-24T12:40:11;43.60;13.40
79762;DHT22;69249;42.122;24.734;2023-04-24T12:42:56;43.20;13.90
79762;DHT22;69249;42.122;24.734;2023-04-24T12:45:22;42.70;14.20
79762;DHT22;69249;42.122;24.734;2023-04-24T12:47:49;42.20;14.20
79762;DHT22;69249;42.122;24.734;2023-04-24T12:50:16;41.50;14.90
79762;DHT22;69249;42.122;24.734;2023-04-24T12:52:42;40.60;15.50
79762;DHT22;69249;42.122;24.734;2023-04-24T12:55:08;39.80;15.80
79762;DHT22;69249;42.122;24.734;2023-04-24T12:57:36;38.90;17.60
79762;DHT22;69249;42.122;24.734;2023-04-24T13:00:03;38.00;17.20
79762;DHT22;69249;42.122;24.734;2023-04-24T13:02:30;37.60;17.50
79762;DHT22;69249;42.122;24.734;2023-04-24T13:04:59;37.20;17.70
79762;DHT22;69249;42.122;24.734;2023-04-24T13:07:26;36.80;17.90
79762;DHT22;69249;42.122;24.734;2023-04-24T13:09:54;36.40;18.40
79762;DHT22;69249;42.122;24.734;2023-04-24T13:12:20;35.90;18.70
79762;DHT22;69249;42.122;24.734;2023-04-24T13:14:46;35.60;18.70
79762;DHT22;69249;42.122;24.734;2023-04-24T13:17:12;35.40;18.70
79762;DHT22;69249;42.122;24.734;2023-04-24T13:19:40;35.10;19.30
79762;DHT22;69249;42.122;24.734;2023-04-24T13:22:06;34.70;19.30
79762;DHT22;69249;42.122;24.734;2023-04-24T13:24:33;34.20;19.50
79762;DHT22;69249;42.122;24.734;2023-04-24T13:26:59;33.80;19.90
79762;DHT22;69249;42.122;24.734;2023-04-24T13:29:26;33.70;20.30
79762;DHT22;69249;42.122;24.734;2023-04-24T13:31:52;33.40;20.30
79762;DHT22;69249;42.122;24.734;2023-04-24T13:34:25;33.30;20.80
79762;DHT22;69249;42.122;24.734;2023-04-24T13:36:55;33.70;20.50
79762;DHT22;69249;42.122;24.734;2023-04-24T13:39:22;33.80;20.50
79762;DHT22;69249;42.122;24.734;2023-04-24T13:41:48;33.80;20.80
79762;DHT22;69249;42.122;24.734;2023-04-24T13:44:14;33.70;20.50
79762;DHT22;69249;42.122;24.734;2023-04-24T13:46:41;33.60;20.70
79762;DHT22;69249;42.122;24.734;2023-04-24T13:49:08;33.50;21.40
79762;DHT22;69249;42.122;24.734;2023-04-24T13:51:33;33.60;21.40
79762;DHT22;69249;42.122;24.734;2023-04-24T13:53:59;33.40;20.30
79762;DHT22;69249;42.122;24.734;2023-04-24T13:56:26;32.60;21.30
79762;DHT22;69249;42.122;24.734;2023-04-24T13:58:51;32.20;22.20
79762;DHT22;69249;42.122;24.734;2023-04-24T14:01:19;32.00;22.00
79762;DHT22;69249;42.122;24.734;2023-04-24T14:03:46;31.80;22.30
79762;DHT22;69249;42.122;24.734;2023-04-24T14:06:12;31.80;22.90
79762;DHT22;69249;42.122;24.734;2023-04-24T14:08:37;31.80;22.80
79762;DHT22;69249;42.122;24.734;2023-04-24T14:11:04;31.70;22.60
79762;DHT22;69249;42.122;24.734;2023-04-24T14:13:30;31.50;22.90
79762;DHT22;69249;42.122;24.734;2023-04-24T14:15:55;31.20;23.20
79762;DHT22;69249;42.122;24.734;2023-04-24T14:18:21;30.60;23.80
79762;DHT22;69249;42.122;24.734;2023-04-24T14:20:47;30.10;24.10
79762;DHT22;69249;42.122;24.734;2023-04-24T14:23:12;29.80;24.60
79762;DHT22;69249;42.122;24.734;2023-04-24T14:25:38;29.60;24.90
79762;DHT22;69249;42.122;24.734;2023-04-24T14:28:05;29.40;25.20
79762;DHT22;69249;42.122;24.734;2023-04-24T14:30:31;29.40;25.30
79762;DHT22;69249;42.122;24.734;2023-04-24T14:32:57;29.40;25.40
79762;DHT22;69249;42.122;24.734;2023-04-24T14:35:23;29.40;25.00
79762;DHT22;69249;42.122;24.734;2023-04-24T14:37:49;29.40;25.00
79762;DHT22;69249;42.122;24.734;2023-04-24T14:40:15;29.30;25.50
79762;DHT22;69249;42.122;24.734;2023-04-24T14:42:41;29.20;25.20
79762;DHT22;69249;42.122;24.734;2023-04-24T14:45:07;29.10;25.10
79762;DHT22;69249;42.122;24.734;2023-04-24T14:47:33;28.80;25.80
79762;DHT22;69249;42.122;24.734;2023-04-24T14:49:59;28.70;26.00
79762;DHT22;69249;42.122;24.734;2023-04-24T14:52:25;28.40;26.00
79762;DHT22;69249;42.122;24.734;2023-04-24T14:54:50;28.30;26.30
79762;DHT22;69249;42.122;24.734;2023-04-24T14:57:16;28.10;26.60
79762;DHT22;69249;42.122;24.734;2023-04-24T14:59:42;28.10;27.10
79762;DHT22;69249;42.122;24.734;2023-04-24T15:02:08;28.10;27.10
79762;DHT22;69249;42.122;24.734;2023-04-24T15:04:33;28.20;27.20
79762;DHT22;69249;42.122;24.734;2023-04-24T15:06:59;28.20;26.70
79762;DHT22;69249;42.122;24.734;2023-04-24T15:09:25;28.40;26.60
79762;DHT22;69249;42.122;24.734;2023-04-24T15:11:52;28.40;26.50
79762;DHT22;69249;42.122;24.734;2023-04-24T15:14:18;28.20;26.50
79762;DHT22;69249;42.122;24.734;2023-04-24T15:16:44;28.10;26.30
79762;DHT22;69249;42.122;24.734;2023-04-24T15:19:10;28.00;26.10
79762;DHT22;69249;42.122;24.734;2023-04-24T15:21:37;27.90;26.30
79762;DHT22;69249;42.122;24.734;2023-04-24T15:24:06;27.70;26.50
79762;DHT22;69249;42.122;24.734;2023-04-24T15:26:31;27.50;26.70
79762;DHT22;69249;42.122;24.734;2023-04-24T15:28:57;27.40;26.60
79762;DHT22;69249;42.122;24.734;2023-04-24T15:31:23;27.20;26.50
79762;DHT22;69249;42.122;24.734;2023-04-24T15:33:49;27.00;27.00
79762;DHT22;69249;42.122;24.734;2023-04-24T15:36:16;26.80;26.80
79762;DHT22;69249;42.122;24.734;2023-04-24T15:38:45;26.70;27.30
79762;DHT22;69249;42.122;24.734;2023-04-24T15:41:11;26.60;27.70
79762;DHT22;69249;42.122;24.734;2023-04-24T15:43:37;26.50;27.80
79762;DHT22;69249;42.122;24.734;2023-04-24T15:46:04;26.40;27.80
79762;DHT22;69249;42.122;24.734;2023-04-24T15:48:30;26.20;28.10
79762;DHT22;69249;42.122;24.734;2023-04-24T15:50:56;26.00;28.80
79762;DHT22;69249;42.122;24.734;2023-04-24T15:53:22;25.80;28.80